»·PEaware :: N4GS KSBA-KBUR

N4GS :: KSBA-KBUR

FLIGHT INFORMATION

Flight Status: Arrived
Operator: Privately registered:
United States
More flights under this callsign
Pilot: Greg S. (16931)
Aircraft: PIPER PA-32 SARATOGA
(PA32)
More flights by this aircraft type
Origin: KSBA Santa Barbara Mun
United States
Destination: KBUR Bob Hope-Burbank
United States
More flights between these airports :: More routes between these airports
Route: +DEANO V186 FIM TOAKS
File this flight plan on PilotEdge
Remarks: Cat 8
Altitude:
(Current/Filed)
9,500ft
Speed:
(Current/Filed)
150kts
Departed: 03-Jan-18 04:56 PM
Arrived: 03-Jan-18 05:35 PM
Distance/Time
Traveled:
75nm/0:39
Distance/Time
To Go:
Arrived

Flight Plot

Page will automatically refresh every two minutes.

Flight plan parsing failed; only flown route is shown


Map Options




Map Legend


Flown Route
Filed Route
Departure Airport
Arrival Airport
Navaid (VOR, NDB)
Fix

Horizontal Profiles

Position Reports

Time Latitude Longitude Heading Altitude Ground
Speed
03-Jan-18 16:51 34.432571 -119.835099 71 13ft 0kts
03-Jan-18 16:52 34.432571 -119.835099 71 13ft 0kts
03-Jan-18 16:53 34.432571 -119.835099 71 13ft 0kts
03-Jan-18 16:54 34.432571 -119.835099 71 13ft 0kts
03-Jan-18 16:55 34.432571 -119.835099 71 13ft 0kts
03-Jan-18 16:56 34.432571 -119.835099 71 13ft 0kts
03-Jan-18 16:57 34.432571 -119.835099 71 13ft 0kts
03-Jan-18 16:58 34.432608 -119.835035 34 13ft 5kts
03-Jan-18 16:59 34.431669 -119.836519 250 13ft 22kts
03-Jan-18 17:00 34.430779 -119.839457 245 12ft 0kts
03-Jan-18 17:01 34.430504 -119.840112 222 11ft 12kts
03-Jan-18 17:02 34.421604 -119.837344 165 210ft 102kts
03-Jan-18 17:03 34.404859 -119.815287 92 1520ft 115kts
03-Jan-18 17:04 34.402223 -119.767668 97 1553ft 158kts
03-Jan-18 17:05 34.397193 -119.712519 96 1453ft 171kts
03-Jan-18 17:06 34.392137 -119.658603 102 2298ft 152kts
03-Jan-18 17:07 34.384773 -119.612601 96 4043ft 126kts
03-Jan-18 17:08 34.372854 -119.566871 123 5202ft 152kts
03-Jan-18 17:09 34.350641 -119.524661 128 6527ft 161kts
03-Jan-18 17:10 34.325223 -119.482772 128 7408ft 164kts
03-Jan-18 17:11 34.310150 -119.436375 85 8014ft 132kts
03-Jan-18 17:12 34.317622 -119.397997 74 8969ft 123kts
03-Jan-18 17:13 34.332137 -119.354959 72 9473ft 151kts
03-Jan-18 17:14 34.347083 -119.301370 76 9498ft 181kts
03-Jan-18 17:15 34.363493 -119.240763 74 9552ft 189kts
03-Jan-18 17:16 34.381103 -119.178775 76 9572ft 188kts
03-Jan-18 17:17 34.391428 -119.113992 80 9522ft 190kts
03-Jan-18 17:18 34.394359 -119.049209 100 9351ft 197kts
03-Jan-18 17:19 34.374336 -118.991261 126 9198ft 201kts
03-Jan-18 17:20 34.356293 -118.929911 107 9219ft 197kts
03-Jan-18 17:21 34.336403 -118.878535 148 9557ft 184kts
03-Jan-18 17:22 34.289829 -118.851354 163 9233ft 187kts
03-Jan-18 17:23 34.240151 -118.840106 180 8871ft 191kts
03-Jan-18 17:24 34.188590 -118.841212 185 8241ft 175kts
03-Jan-18 17:25 34.144074 -118.837580 145 7371ft 169kts
03-Jan-18 17:26 34.141990 -118.795381 57 5743ft 136kts
03-Jan-18 17:27 34.172273 -118.751299 48 5257ft 195kts
03-Jan-18 17:28 34.179304 -118.701837 103 4284ft 116kts
03-Jan-18 17:29 34.170275 -118.670460 105 3404ft 108kts
03-Jan-18 17:30 34.165128 -118.633985 128 2858ft 86kts
03-Jan-18 17:31 34.141400 -118.616018 143 2470ft 115kts
03-Jan-18 17:32 34.129308 -118.582020 78 3415ft 126kts
03-Jan-18 17:33 34.145808 -118.545827 64 3595ft 118kts
03-Jan-18 17:34 34.159244 -118.513411 67 3309ft 122kts
03-Jan-18 17:35 34.172142 -118.485276 58 2800ft 82kts
03-Jan-18 17:36 34.183737 -118.463974 53 1894ft 75kts
03-Jan-18 17:37 34.196086 -118.440136 68 1467ft 90kts
03-Jan-18 17:38 34.198638 -118.413202 93 1411ft 90kts
03-Jan-18 17:39 34.198316 -118.386066 91 1052ft 76kts
03-Jan-18 17:40 34.197839 -118.361831 83 720ft 70kts
03-Jan-18 17:41 34.197765 -118.352934 75 699ft 9kts
03-Jan-18 17:42 34.198045 -118.352404 35 698ft 0kts
03-Jan-18 17:43 34.198045 -118.352404 35 698ft 0kts
03-Jan-18 17:44 34.198045 -118.352404 35 698ft 0kts
03-Jan-18 17:45 34.198045 -118.352404 35 698ft 0kts
03-Jan-18 17:46 34.198045 -118.352404 35 698ft 0kts
03-Jan-18 17:47 34.198807 -118.352749 270 701ft 13kts
03-Jan-18 17:48 34.198816 -118.356704 265 713ft 23kts
03-Jan-18 17:49 34.201130 -118.358551 343 727ft 13kts
03-Jan-18 17:50 34.201840 -118.359340 252 731ft 0kts

Navigation Log

Ident Type
Flight plan parsing failed, navigation log unavailable